Craddockville, Virginia
Current Conditions -  °F | °C
As of 12:15 PM on Wednesday 26 Nov 2014 (Local Time) from KMFV Reporting Station
Moderate Rain Moderate Rain  
Wind Chill: 35°   Ceiling: 700
Heat Index: 43°   Visibility: 4mi
Dew Point: 41°   Wind: 16mph
Humidity: 93%   Direction: 350°N
Pressure: 29.82"   Gusts: 26mph
Location:  37.58°N, 75.87°W
Report Text: KMFV 261715Z AUTO 35014G23KT 4SM RA OVC007 06/05 A2982 RMK AO2 P0004
Loading
Personal Weather Stations






























Interactive Weather Map New forecast layout! Learn more

10-Day Weather Forecast

Advertisements
Track Severe Weather on mobile